createdAt,value
2019-01-05T00:00:04.157Z,-82
2019-01-05T00:02:54.934Z,-82
2019-01-05T00:05:54.502Z,-82
2019-01-05T00:08:49.494Z,-82
2019-01-05T00:11:40.516Z,-78
2019-01-05T00:14:46.806Z,-78
2019-01-05T00:17:36.330Z,-82
2019-01-05T00:20:25.993Z,-83
2019-01-05T00:23:21.131Z,-82
2019-01-05T00:26:12.507Z,-82
2019-01-05T00:29:08.644Z,-82
2019-01-05T00:32:46.913Z,-82
2019-01-05T00:35:49.000Z,-82
2019-01-05T00:38:52.612Z,-82
2019-01-05T00:41:48.669Z,-82
2019-01-05T00:44:38.098Z,-81
2019-01-05T00:47:24.131Z,-78
2019-01-05T00:50:12.175Z,-78
2019-01-05T00:53:02.818Z,-78
2019-01-05T00:56:14.822Z,-78
2019-01-05T00:59:06.777Z,-80
2019-01-05T01:01:58.961Z,-80
2019-01-05T01:05:05.349Z,-79
2019-01-05T01:08:05.277Z,-79
2019-01-05T01:10:55.554Z,-79
2019-01-05T01:13:53.208Z,-79
2019-01-05T01:16:42.871Z,-79
2019-01-05T01:19:42.815Z,-79
2019-01-05T01:22:35.329Z,-79
2019-01-05T01:25:26.388Z,-79
2019-01-05T01:28:29.873Z,-80
2019-01-05T01:31:14.103Z,-79
2019-01-05T01:34:05.766Z,-79
2019-01-05T01:37:09.177Z,-79
2019-01-05T01:40:07.416Z,-81
2019-01-05T01:42:57.563Z,-79
2019-01-05T01:45:49.325Z,-79
2019-01-05T01:48:39.788Z,-79
2019-01-05T01:51:41.572Z,-79
2019-01-05T01:54:40.283Z,-79
2019-01-05T01:57:47.313Z,-79
2019-01-05T02:00:46.212Z,-79
2019-01-05T02:03:42.809Z,-80
2019-01-05T02:06:52.277Z,-79
2019-01-05T02:10:01.109Z,-79
2019-01-05T02:13:10.066Z,-79
2019-01-05T02:16:01.132Z,-80
2019-01-05T02:19:12.801Z,-79
2019-01-05T02:23:04.128Z,-79
2019-01-05T02:26:41.718Z,-79
2019-01-05T02:30:30.503Z,-79
2019-01-05T02:33:54.812Z,-79
2019-01-05T02:37:44.575Z,-79
2019-01-05T02:41:19.678Z,-79
2019-01-05T02:45:01.770Z,-82
2019-01-05T02:49:25.696Z,-81
2019-01-05T02:52:56.858Z,-82
2019-01-05T02:56:55.854Z,-82
2019-01-05T03:00:24.803Z,-82
2019-01-05T03:04:01.670Z,-81
2019-01-05T03:08:09.388Z,-81
2019-01-05T03:12:10.455Z,-82
2019-01-05T03:15:59.564Z,-82
2019-01-05T03:19:21.836Z,-82
2019-01-05T03:23:05.736Z,-77
2019-01-05T03:27:00.977Z,-78
2019-01-05T03:30:28.150Z,-78
2019-01-05T03:34:15.176Z,-78
2019-01-05T03:38:41.123Z,-78
2019-01-05T03:42:38.372Z,-77
2019-01-05T03:46:18.200Z,-77
2019-01-05T03:50:05.665Z,-78
2019-01-05T03:53:42.778Z,-80
2019-01-05T03:57:17.268Z,-78
2019-01-05T04:01:12.387Z,-80
2019-01-05T04:05:02.927Z,-80
2019-01-05T04:08:47.768Z,-78
2019-01-05T04:12:17.088Z,-78
2019-01-05T04:15:53.061Z,-78
2019-01-05T04:20:05.606Z,-78
2019-01-05T04:24:03.044Z,-80
2019-01-05T04:27:57.611Z,-78
2019-01-05T04:31:34.069Z,-78
2019-01-05T04:35:32.457Z,-78
2019-01-05T04:39:44.910Z,-77
2019-01-05T04:43:49.223Z,-79
2019-01-05T04:47:29.325Z,-80
2019-01-05T04:51:24.142Z,-82
2019-01-05T04:55:20.942Z,-80
2019-01-05T04:59:37.333Z,-80
2019-01-05T05:03:54.264Z,-81
2019-01-05T05:07:59.166Z,-81
2019-01-05T05:12:00.045Z,-80
2019-01-05T05:16:10.418Z,-81
2019-01-05T05:19:59.120Z,-78
2019-01-05T05:23:55.276Z,-79
2019-01-05T05:28:14.920Z,-79
2019-01-05T05:32:08.095Z,-82
2019-01-05T05:36:20.652Z,-79
2019-01-05T05:40:22.882Z,-80
2019-01-05T05:44:20.427Z,-80
2019-01-05T05:48:09.925Z,-81
2019-01-05T05:52:26.347Z,-81
2019-01-05T05:56:19.707Z,-80
2019-01-05T06:00:16.416Z,-80
2019-01-05T06:04:07.282Z,-78
2019-01-05T06:07:43.818Z,-78
2019-01-05T06:11:46.418Z,-82
2019-01-05T06:15:31.246Z,-78
2019-01-05T06:19:44.642Z,-79
2019-01-05T06:23:43.918Z,-79
2019-01-05T06:27:30.522Z,-83
2019-01-05T06:31:12.764Z,-83
2019-01-05T06:34:50.229Z,-83
2019-01-05T06:38:45.105Z,-83
2019-01-05T06:42:33.993Z,-83
2019-01-05T06:46:22.320Z,-82
2019-01-05T06:50:24.588Z,-83
2019-01-05T06:54:14.386Z,-83
2019-01-05T06:58:13.789Z,-83
2019-01-05T07:02:00.665Z,-83
2019-01-05T07:05:50.635Z,-83
2019-01-05T07:09:55.963Z,-82
2019-01-05T07:13:21.613Z,-83
2019-01-05T07:17:02.090Z,-83
2019-01-05T07:20:49.682Z,-84
2019-01-05T07:24:47.253Z,-84
2019-01-05T07:28:29.546Z,-83
2019-01-05T07:31:59.707Z,-79
2019-01-05T07:35:42.571Z,-79
2019-01-05T07:39:23.935Z,-79
2019-01-05T07:43:18.189Z,-79
2019-01-05T07:46:53.381Z,-79
2019-01-05T07:51:07.436Z,-79
2019-01-05T07:55:09.559Z,-79
2019-01-05T07:58:34.511Z,-79
2019-01-05T08:02:40.231Z,-79
2019-01-05T08:06:41.957Z,-80
2019-01-05T08:10:17.578Z,-80
2019-01-05T08:13:56.090Z,-80
2019-01-05T08:18:00.512Z,-80
2019-01-05T08:21:53.607Z,-80
2019-01-05T08:25:52.468Z,-81
2019-01-05T08:29:44.651Z,-81
2019-01-05T08:33:49.623Z,-81
2019-01-05T08:37:35.159Z,-81
2019-01-05T08:41:41.126Z,-81
2019-01-05T08:45:51.678Z,-81
2019-01-05T08:49:56.202Z,-81
2019-01-05T08:53:59.982Z,-81
2019-01-05T08:57:40.429Z,-81
2019-01-05T09:01:32.638Z,-82
2019-01-05T09:05:40.217Z,-82
2019-01-05T09:09:20.147Z,-81
2019-01-05T09:13:23.528Z,-82
2019-01-05T09:17:32.724Z,-82
2019-01-05T09:21:52.167Z,-82
2019-01-05T09:25:39.112Z,-82
2019-01-05T09:29:52.053Z,-82
2019-01-05T09:33:40.892Z,-82
2019-01-05T09:37:21.885Z,-82
2019-01-05T09:41:18.252Z,-82
2019-01-05T09:45:06.693Z,-84
2019-01-05T09:48:47.493Z,-84
2019-01-05T09:52:31.120Z,-84
2019-01-05T09:56:35.663Z,-83
2019-01-05T10:00:14.094Z,-84
2019-01-05T10:03:54.214Z,-85
2019-01-05T10:07:38.547Z,-83
2019-01-05T10:11:38.482Z,-84
2019-01-05T10:15:29.985Z,-83
2019-01-05T10:19:17.097Z,-85
2019-01-05T10:22:50.648Z,-85
2019-01-05T10:26:43.683Z,-85
2019-01-05T10:30:31.004Z,-85
2019-01-05T10:34:20.808Z,-85
2019-01-05T10:38:18.965Z,-87
2019-01-05T10:41:47.825Z,-86
2019-01-05T10:45:29.559Z,-87
2019-01-05T10:49:20.785Z,-86
2019-01-05T10:53:16.204Z,-86
2019-01-05T10:57:29.531Z,-85
2019-01-05T11:01:08.290Z,-86
2019-01-05T11:05:17.963Z,-86
2019-01-05T11:09:05.549Z,-86
2019-01-05T11:13:02.487Z,-85
2019-01-05T11:50:53.131Z,-87
2019-01-05T11:54:50.329Z,-87
2019-01-05T11:58:15.413Z,-86
2019-01-05T12:01:59.367Z,-86
2019-01-05T12:06:07.622Z,-85
2019-01-05T12:10:03.916Z,-85
2019-01-05T12:14:17.347Z,-85
2019-01-05T12:18:21.693Z,-84
2019-01-05T12:22:13.502Z,-85
2019-01-05T12:26:06.162Z,-87
2019-01-05T12:29:55.853Z,-87
2019-01-05T12:34:08.949Z,-87
2019-01-05T12:38:00.830Z,-85
2019-01-05T12:41:55.632Z,-84
2019-01-05T12:46:01.359Z,-84
2019-01-05T12:50:01.039Z,-84
2019-01-05T12:53:49.220Z,-85
2019-01-05T12:58:13.331Z,-85
2019-01-05T13:02:17.847Z,-85
2019-01-05T13:06:31.921Z,-86
2019-01-05T13:10:27.955Z,-86
2019-01-05T13:14:22.856Z,-86
2019-01-05T13:18:42.291Z,-86
2019-01-05T13:22:26.439Z,-86
2019-01-05T13:26:25.756Z,-86
2019-01-05T13:30:18.253Z,-86
2019-01-05T13:34:10.384Z,-87
2019-01-05T13:37:51.453Z,-87
2019-01-05T13:41:52.612Z,-86
2019-01-05T13:45:42.142Z,-85
2019-01-05T13:49:43.957Z,-85
2019-01-05T13:52:59.718Z,-84
2019-01-05T13:56:21.889Z,-84
2019-01-05T13:59:15.510Z,-84
2019-01-05T14:02:04.986Z,-85
2019-01-05T14:04:54.553Z,-84
2019-01-05T14:07:43.688Z,-83
2019-01-05T14:10:37.504Z,-84
2019-01-05T14:13:27.014Z,-83
2019-01-05T14:16:16.148Z,-83
2019-01-05T14:19:11.151Z,-83
2019-01-05T14:22:17.060Z,-82
2019-01-05T14:25:16.929Z,-83
2019-01-05T14:28:16.796Z,-83
2019-01-05T14:31:26.191Z,-83
2019-01-05T14:34:23.083Z,-82
2019-01-05T14:37:12.026Z,-83
2019-01-05T14:40:20.973Z,-82
2019-01-05T14:43:10.461Z,-82
2019-01-05T14:46:04.276Z,-85
2019-01-05T14:48:57.955Z,-85
2019-01-05T14:51:51.547Z,-85
2019-01-05T14:54:45.352Z,-85
2019-01-05T14:57:34.478Z,-85
2019-01-05T15:00:41.198Z,-85
2019-01-05T15:03:34.796Z,-84
2019-01-05T15:06:31.613Z,-85
2019-01-05T15:09:28.432Z,-85
2019-01-05T15:12:18.199Z,-85
2019-01-05T15:15:16.481Z,-84
2019-01-05T15:18:05.984Z,-85
2019-01-05T15:20:56.599Z,-83
2019-01-05T15:23:47.366Z,-82
2019-01-05T15:26:44.299Z,-83
2019-01-05T15:29:33.512Z,-83
2019-01-05T15:32:36.471Z,-82
2019-01-05T15:35:33.263Z,-83
2019-01-05T15:38:35.922Z,-82
2019-01-05T15:41:25.084Z,-82
2019-01-05T15:44:14.166Z,-83
2019-01-05T15:47:13.733Z,-82
2019-01-05T15:50:02.870Z,-83
2019-01-05T15:53:11.562Z,-82
2019-01-05T15:56:02.371Z,-82
2019-01-05T15:59:02.275Z,-82
2019-01-05T16:01:53.322Z,-82
2019-01-05T16:04:54.557Z,-82
2019-01-05T16:07:54.298Z,-83
2019-01-05T16:10:59.978Z,-82
2019-01-05T16:13:52.019Z,-82
2019-01-05T16:16:41.242Z,-84
2019-01-05T16:19:32.293Z,-82
2019-01-05T16:22:21.533Z,-82
2019-01-05T16:25:10.689Z,-82
2019-01-05T16:28:00.130Z,-83
2019-01-05T16:30:50.889Z,-82
2019-01-05T16:33:53.803Z,-82
2019-01-05T16:36:57.408Z,-83
2019-01-05T16:40:00.321Z,-82
2019-01-05T16:42:49.488Z,-82
2019-01-05T16:45:43.261Z,-82
2019-01-05T16:48:36.838Z,-83
2019-01-05T16:51:26.452Z,-82
2019-01-05T16:54:15.649Z,-82
2019-01-05T16:57:02.011Z,-82
2019-01-05T16:59:55.818Z,-83
2019-01-05T17:02:56.642Z,-84
2019-01-05T17:05:53.429Z,-82
2019-01-05T17:08:51.407Z,-83
2019-01-05T17:11:40.775Z,-82
2019-01-05T17:14:30.003Z,-82
2019-01-05T17:17:36.072Z,-82
2019-01-05T17:20:25.331Z,-84
2019-01-05T17:23:24.983Z,-84
2019-01-05T17:26:27.547Z,-85
2019-01-05T17:29:17.225Z,-84
2019-01-05T17:32:17.094Z,-85
2019-01-05T17:35:19.871Z,-81
2019-01-05T17:38:02.527Z,-82
2019-01-05T17:41:02.056Z,-82
2019-01-05T17:43:50.596Z,-82
2019-01-05T17:46:40.400Z,-83
2019-01-05T17:49:40.253Z,-83
2019-01-05T17:52:29.893Z,-83
2019-01-05T17:55:19.497Z,-82
2019-01-05T17:58:19.522Z,-82
2019-01-05T18:01:20.157Z,-83
2019-01-05T18:04:23.468Z,-83
2019-01-05T18:07:12.918Z,-82
2019-01-05T18:10:18.997Z,-81
2019-01-05T18:13:16.568Z,-83
2019-01-05T18:16:20.067Z,-82
2019-01-05T18:19:16.636Z,-81
2019-01-05T18:22:16.303Z,-82
2019-01-05T18:25:08.321Z,-82
2019-01-05T18:28:05.480Z,-82
2019-01-05T18:30:59.341Z,-82
2019-01-05T18:33:50.363Z,-83
2019-01-05T18:36:42.407Z,-82
2019-01-05T18:39:49.789Z,-83
2019-01-05T18:42:46.980Z,-82
2019-01-05T18:45:53.590Z,-82
2019-01-05T18:48:43.822Z,-82
2019-01-05T18:51:34.139Z,-83
2019-01-05T18:54:23.755Z,-83
2019-01-05T18:57:14.362Z,-82
2019-01-05T19:00:05.314Z,-83
2019-01-05T19:02:54.470Z,-83
2019-01-05T19:06:00.366Z,-83
2019-01-05T19:08:51.120Z,-82
2019-01-05T19:11:45.073Z,-83
2019-01-05T19:14:38.500Z,-83
2019-01-05T19:17:28.061Z,-85
2019-01-05T19:20:35.021Z,-82
2019-01-05T19:23:32.626Z,-82
2019-01-05T19:26:26.658Z,-83
2019-01-05T19:29:18.155Z,-82
2019-01-05T19:32:07.349Z,-81
2019-01-05T19:35:00.963Z,-82
2019-01-05T19:37:50.535Z,-82
2019-01-05T19:40:47.232Z,-82
2019-01-05T19:43:37.995Z,-82
2019-01-05T19:46:40.789Z,-82
2019-01-05T19:49:29.774Z,-82
2019-01-05T19:52:20.553Z,-82
2019-01-05T19:55:10.001Z,-81
2019-01-05T19:57:59.590Z,-82
2019-01-05T20:01:05.332Z,-81
2019-01-05T20:04:02.055Z,-83
2019-01-05T20:06:51.526Z,-83
2019-01-05T20:09:35.062Z,-83
2019-01-05T20:12:37.615Z,-84
2019-01-05T20:15:44.448Z,-84
2019-01-05T20:18:45.052Z,-82
2019-01-05T20:21:37.367Z,-80
2019-01-05T20:24:27.931Z,-81
2019-01-05T20:27:18.480Z,-81
2019-01-05T20:30:10.256Z,-81
2019-01-05T20:33:00.629Z,-80
2019-01-05T20:36:10.267Z,-81
2019-01-05T20:39:18.371Z,-81
2019-01-05T20:42:09.033Z,-81
2019-01-05T20:44:59.474Z,-81
2019-01-05T20:48:00.785Z,-83
2019-01-05T20:50:51.412Z,-83
2019-01-05T20:53:42.252Z,-84
2019-01-05T20:56:33.710Z,-83
2019-01-05T20:59:43.987Z,-82
2019-01-05T21:02:48.736Z,-82
2019-01-05T21:05:52.494Z,-82
2019-01-05T21:08:44.633Z,-82
2019-01-05T21:11:39.817Z,-82
2019-01-05T21:14:44.247Z,-81
2019-01-05T21:17:34.791Z,-81
2019-01-05T21:20:38.056Z,-80
2019-01-05T21:23:28.416Z,-82
2019-01-05T21:26:24.483Z,-82
2019-01-05T21:29:23.311Z,-81
2019-01-05T21:32:16.000Z,-81
2019-01-05T21:35:07.541Z,-81
2019-01-05T21:38:07.089Z,-82
2019-01-05T21:41:02.406Z,-82
2019-01-05T21:44:06.585Z,-82
2019-01-05T21:47:01.747Z,-82
2019-01-05T21:50:03.564Z,-81
2019-01-05T21:53:03.832Z,-81
2019-01-05T21:55:52.764Z,-81
2019-01-05T21:58:45.717Z,-81
2019-01-05T22:01:47.215Z,-81
2019-01-05T22:04:45.840Z,-81
2019-01-05T22:07:44.847Z,-81
2019-01-05T22:10:42.269Z,-80
2019-01-05T22:13:35.719Z,-81
2019-01-05T22:16:27.503Z,-81
2019-01-05T22:19:19.596Z,-80
2019-01-05T22:22:30.308Z,-81
2019-01-05T22:25:21.083Z,-81
2019-01-05T22:28:20.679Z,-80
2019-01-05T22:31:18.640Z,-81
2019-01-05T22:34:10.103Z,-81
2019-01-05T22:37:01.189Z,-81
2019-01-05T22:39:51.807Z,-81
2019-01-05T22:43:00.961Z,-81
2019-01-05T22:45:52.277Z,-81
2019-01-05T22:48:54.741Z,-81
2019-01-05T22:52:00.992Z,-82
2019-01-05T22:54:51.409Z,-81
2019-01-05T22:57:49.556Z,-81
2019-01-05T23:00:40.405Z,-82
2019-01-05T23:03:41.648Z,-80
2019-01-05T23:06:31.516Z,-82
2019-01-05T23:09:26.893Z,-82
2019-01-05T23:12:18.389Z,-82
2019-01-05T23:15:11.330Z,-83
2019-01-05T23:18:03.275Z,-82
2019-01-05T23:21:04.120Z,-82
2019-01-05T23:23:56.913Z,-83
2019-01-05T23:26:49.122Z,-82
2019-01-05T23:29:59.803Z,-82
2019-01-05T23:32:51.917Z,-83
2019-01-05T23:35:39.645Z,-80
2019-01-05T23:38:50.317Z,-81
2019-01-05T23:41:53.363Z,-82
2019-01-05T23:44:44.886Z,-81
2019-01-05T23:47:48.818Z,-81
2019-01-05T23:50:38.223Z,-81
2019-01-05T23:53:26.937Z,-82
2019-01-05T23:56:17.750Z,-81
2019-01-05T23:59:07.716Z,-81
